createdAt,value
2023-04-19T00:03:28.320Z,4.70
2023-04-19T00:08:31.990Z,4.13
2023-04-19T00:13:33.924Z,2.23
2023-04-19T00:18:35.843Z,4.43
2023-04-19T00:23:39.292Z,4.53
2023-04-19T00:28:41.766Z,2.93
2023-04-19T00:33:43.920Z,2.10
2023-04-19T00:38:47.390Z,3.30
2023-04-19T00:43:49.490Z,2.30
2023-04-19T00:48:51.941Z,4.23
2023-04-19T00:53:56.816Z,1.73
2023-04-19T00:58:59.920Z,6.10
2023-04-19T01:04:02.557Z,4.20
2023-04-19T01:09:05.758Z,2.70
2023-04-19T01:14:09.124Z,4.50
2023-04-19T01:19:10.842Z,5.17
2023-04-19T01:24:14.396Z,2.40
2023-04-19T01:29:16.922Z,1.83
2023-04-19T01:34:19.045Z,2.10
2023-04-19T01:39:22.944Z,2.90
2023-04-19T01:44:25.005Z,1.73
2023-04-19T01:49:27.189Z,2.10
2023-04-19T01:54:30.808Z,3.20
2023-04-19T01:59:32.975Z,3.80
2023-04-19T02:04:35.383Z,1.50
2023-04-19T02:09:39.179Z,2.93
2023-04-19T02:14:41.355Z,2.70
2023-04-19T02:19:43.594Z,3.63
2023-04-19T02:24:46.972Z,3.53
2023-04-19T02:29:49.287Z,2.00
2023-04-19T02:34:51.445Z,4.70
2023-04-19T02:39:54.978Z,4.43
2023-04-19T02:44:57.097Z,2.17
2023-04-19T02:50:00.204Z,3.87
2023-04-19T02:55:03.990Z,2.30
2023-04-19T03:00:07.214Z,5.33
2023-04-19T03:05:09.836Z,2.03
2023-04-19T03:10:13.283Z,2.87
2023-04-19T03:15:15.472Z,2.50
2023-04-19T03:20:17.783Z,2.50
2023-04-19T03:25:21.072Z,2.83
2023-04-19T03:30:23.392Z,1.87
2023-04-19T03:35:25.441Z,1.80
2023-04-19T03:40:30.576Z,2.60
2023-04-19T03:45:32.644Z,2.23
2023-04-19T03:50:34.807Z,3.73
2023-04-19T03:55:38.492Z,2.07
2023-04-19T04:00:40.199Z,2.03
2023-04-19T04:05:42.594Z,2.63
2023-04-19T04:10:46.253Z,3.13
2023-04-19T04:15:48.596Z,3.67
2023-04-19T04:20:50.682Z,3.20
2023-04-19T04:25:58.198Z,2.43
2023-04-19T04:31:00.603Z,2.07
2023-04-19T04:36:02.584Z,7.17
2023-04-19T04:41:05.849Z,3.63
2023-04-19T04:46:07.608Z,3.20
2023-04-19T04:51:09.333Z,5.20
2023-04-19T04:56:12.786Z,3.00
2023-04-19T05:01:14.987Z,1.77
2023-04-19T05:06:16.952Z,7.10
2023-04-19T05:11:20.734Z,2.40
2023-04-19T05:16:22.735Z,2.60
2023-04-19T05:21:24.842Z,3.70
2023-04-19T05:26:28.307Z,3.50
2023-04-19T05:31:30.682Z,5.60
2023-04-19T05:36:32.802Z,2.30
2023-04-19T05:41:36.440Z,5.77
2023-04-19T05:46:38.595Z,2.20
2023-04-19T05:51:40.609Z,3.47
2023-04-19T05:56:44.233Z,4.00
2023-04-19T06:01:46.360Z,2.37
2023-04-19T06:06:48.432Z,4.10
2023-04-19T06:11:52.143Z,1.87
2023-04-19T06:16:54.300Z,3.47
2023-04-19T06:21:56.387Z,3.33
2023-04-19T06:26:59.962Z,1.80
2023-04-19T06:32:02.789Z,1.73
2023-04-19T06:37:05.178Z,3.43
2023-04-19T06:42:08.528Z,3.17
2023-04-19T06:47:10.678Z,2.37
2023-04-19T06:52:12.617Z,2.50
2023-04-19T06:57:16.217Z,2.27
2023-04-19T07:02:18.230Z,2.40
2023-04-19T07:07:20.418Z,3.43
2023-04-19T07:12:24.179Z,2.33
2023-04-19T07:17:26.446Z,1.57
2023-04-19T07:22:28.472Z,3.93
2023-04-19T07:27:31.861Z,4.87
2023-04-19T07:32:34.519Z,4.77
2023-04-19T07:37:36.607Z,1.67
2023-04-19T07:42:40.036Z,5.17
2023-04-19T07:47:41.828Z,3.97
2023-04-19T07:52:44.225Z,3.27
2023-04-19T07:57:47.571Z,3.20
2023-04-19T08:02:49.913Z,7.57
2023-04-19T08:07:52.938Z,1.13
2023-04-19T08:13:04.404Z,1.23
2023-04-19T08:18:08.080Z,1.07
2023-04-19T08:23:18.526Z,1.63
2023-04-19T08:28:25.089Z,1.90
2023-04-19T08:33:28.908Z,3.07
2023-04-19T08:38:30.970Z,2.43
2023-04-19T08:43:38.387Z,2.37
2023-04-19T08:48:41.801Z,1.97
2023-04-19T08:53:44.453Z,4.43
2023-04-19T09:04:03.329Z,2.00
2023-04-19T09:09:33.302Z,3.03
2023-04-19T09:14:59.743Z,5.17
2023-04-19T09:20:04.634Z,4.30
2023-04-19T09:30:21.020Z,1.97
2023-04-19T09:35:40.817Z,1.37
2023-04-19T09:40:43.863Z,3.60
2023-04-19T09:45:46.969Z,4.23
2023-04-19T09:50:58.856Z,1.20
2023-04-19T09:56:04.403Z,2.43
2023-04-19T10:01:15.934Z,3.90
2023-04-19T10:11:27.581Z,3.53
2023-04-19T10:16:32.642Z,2.90
2023-04-19T10:21:36.509Z,5.43
2023-04-19T10:27:07.741Z,1.90
2023-04-19T10:32:15.236Z,1.90
2023-04-19T10:37:17.469Z,3.87
2023-04-19T10:42:19.690Z,2.77
2023-04-19T10:47:44.439Z,4.87
2023-04-19T10:52:46.874Z,3.37
2023-04-19T10:58:05.300Z,1.93
2023-04-19T11:03:52.804Z,3.17
2023-04-19T11:08:57.136Z,2.73
2023-04-19T11:14:01.377Z,5.07
2023-04-19T11:19:03.653Z,2.93
2023-04-19T11:24:10.765Z,2.80
2023-04-19T11:29:12.969Z,4.17
2023-04-19T11:34:15.339Z,5.17
2023-04-19T11:39:19.581Z,2.47
2023-04-19T11:44:21.685Z,4.50
2023-04-19T11:49:26.717Z,2.37
2023-04-19T11:54:30.125Z,3.23
2023-04-19T11:59:34.165Z,2.43
2023-04-19T12:04:37.123Z,6.53
2023-04-19T12:09:40.418Z,1.57
2023-04-19T12:14:52.307Z,2.60
2023-04-19T12:19:54.046Z,3.27
2023-04-19T12:24:57.676Z,4.87
2023-04-19T12:29:59.894Z,4.60
2023-04-19T12:35:01.576Z,5.20
2023-04-19T12:40:06.755Z,4.97
2023-04-19T12:45:09.958Z,3.07
2023-04-19T12:50:13.261Z,3.30
2023-04-19T12:55:16.298Z,2.50
2023-04-19T13:00:18.783Z,1.87
2023-04-19T13:05:20.548Z,3.77
2023-04-19T13:10:23.978Z,1.50
2023-04-19T13:15:26.198Z,2.53
2023-04-19T13:20:27.879Z,4.43
2023-04-19T13:25:31.197Z,3.30
2023-04-19T13:30:33.458Z,3.43
2023-04-19T13:35:35.200Z,3.17
2023-04-19T13:40:38.851Z,1.97
2023-04-19T13:45:40.938Z,4.80
2023-04-19T13:50:43.119Z,4.90
2023-04-19T13:55:46.613Z,2.67
2023-04-19T14:00:48.402Z,3.47
2023-04-19T14:05:50.639Z,1.93
2023-04-19T14:10:54.300Z,5.97
2023-04-19T14:15:56.440Z,5.47
2023-04-19T14:20:58.520Z,3.90
2023-04-19T14:26:01.981Z,4.27
2023-04-19T14:31:04.457Z,3.30
2023-04-19T14:36:07.762Z,3.27
2023-04-19T14:41:11.684Z,4.47
2023-04-19T14:46:13.805Z,3.47
2023-04-19T14:51:15.992Z,2.37
2023-04-19T14:56:19.435Z,3.33
2023-04-19T15:01:21.568Z,4.20
2023-04-19T15:06:23.365Z,2.87
2023-04-19T15:11:26.901Z,4.10
2023-04-19T15:16:29.114Z,3.57
2023-04-19T15:21:31.043Z,2.90
2023-04-19T15:26:35.066Z,3.37
2023-04-19T15:31:37.274Z,3.43
2023-04-19T15:36:39.431Z,7.37
2023-04-19T15:41:43.030Z,4.90
2023-04-19T15:46:45.550Z,6.73
2023-04-19T15:51:47.308Z,9.57
2023-04-19T15:56:51.010Z,5.50
2023-04-19T16:01:52.749Z,6.90
2023-04-19T16:06:55.965Z,6.33
2023-04-19T16:11:59.552Z,8.53
2023-04-19T16:17:01.681Z,6.37
2023-04-19T16:22:03.897Z,5.30
2023-04-19T16:27:07.414Z,4.77
2023-04-19T16:32:09.583Z,8.50
2023-04-19T16:37:11.334Z,10.53
2023-04-19T16:42:14.629Z,8.77
2023-04-19T16:47:16.908Z,7.47
2023-04-19T16:52:18.781Z,7.27
2023-04-19T16:57:23.573Z,7.50
2023-04-19T17:02:26.051Z,7.43
2023-04-19T17:07:28.393Z,8.47
2023-04-19T17:12:31.788Z,6.73
2023-04-19T17:17:34.421Z,11.57
2023-04-19T17:22:36.714Z,7.53
2023-04-19T17:27:40.012Z,8.43
2023-04-19T17:32:42.209Z,7.33
2023-04-19T17:37:44.371Z,10.13
2023-04-19T17:42:47.692Z,8.07
2023-04-19T17:47:49.492Z,7.20
2023-04-19T17:52:51.644Z,5.70
2023-04-19T17:57:54.743Z,4.30
2023-04-19T18:02:56.568Z,7.03
2023-04-19T18:07:58.528Z,7.40
2023-04-19T18:13:02.455Z,4.03
2023-04-19T18:18:04.414Z,4.60
2023-04-19T18:23:06.645Z,4.20
2023-04-19T18:28:09.984Z,4.33
2023-04-19T18:33:11.770Z,6.13
2023-04-19T18:38:13.923Z,3.03
2023-04-19T18:43:17.648Z,4.80
2023-04-19T18:48:20.652Z,4.63
2023-04-19T18:53:23.989Z,7.63
2023-04-19T18:58:28.435Z,6.53
2023-04-19T19:03:57.849Z,6.23
2023-04-19T19:08:53.370Z,6.67
2023-04-19T19:13:57.404Z,5.37
2023-04-19T19:19:01.942Z,8.07
2023-04-19T19:24:05.335Z,5.63
2023-04-19T19:29:09.461Z,7.10
2023-04-19T19:34:25.435Z,8.03
2023-04-19T19:39:31.695Z,8.70
2023-04-19T19:44:35.511Z,8.77
2023-04-19T19:54:42.796Z,10.80
2023-04-19T19:59:51.553Z,12.13
2023-04-19T20:04:55.060Z,9.73
2023-04-19T20:09:57.324Z,9.47
2023-04-19T20:15:00.439Z,11.73
2023-04-19T20:20:02.230Z,10.00
2023-04-19T20:25:04.662Z,12.50
2023-04-19T20:30:09.490Z,10.80
2023-04-19T20:35:11.473Z,9.73
2023-04-19T20:40:14.902Z,13.30
2023-04-19T20:45:18.531Z,11.43
2023-04-19T20:50:20.466Z,10.20
2023-04-19T20:55:22.390Z,10.07
2023-04-19T21:00:25.842Z,10.93
2023-04-19T21:05:27.571Z,11.77
2023-04-19T21:10:29.833Z,16.23
2023-04-19T21:15:33.389Z,13.70
2023-04-19T21:20:35.316Z,13.03
2023-04-19T21:25:37.036Z,12.47
2023-04-19T21:30:40.332Z,10.80
2023-04-19T21:35:42.030Z,12.10
2023-04-19T21:40:44.131Z,13.03
2023-04-19T21:45:47.445Z,10.40
2023-04-19T21:50:49.519Z,11.40
2023-04-19T21:55:52.722Z,10.07
2023-04-19T22:00:56.267Z,12.67
2023-04-19T22:05:58.143Z,9.87
2023-04-19T22:10:59.925Z,9.70
2023-04-19T22:16:03.128Z,12.50
2023-04-19T22:21:05.505Z,12.03
2023-04-19T22:26:07.262Z,9.43
2023-04-19T22:31:10.427Z,13.27
2023-04-19T22:36:12.562Z,13.37
2023-04-19T22:41:14.653Z,14.53
2023-04-19T22:46:18.395Z,11.07
2023-04-19T22:51:20.232Z,13.47
2023-04-19T22:56:22.030Z,15.30
2023-04-19T23:01:25.137Z,10.57
2023-04-19T23:06:26.814Z,12.43
2023-04-19T23:11:28.512Z,12.47
2023-04-19T23:16:31.537Z,11.90
2023-04-19T23:21:33.660Z,15.23
2023-04-19T23:26:35.384Z,12.87
2023-04-19T23:31:38.544Z,16.87
2023-04-19T23:36:40.325Z,15.37
2023-04-19T23:41:42.082Z,14.10
2023-04-19T23:46:45.482Z,12.53
2023-04-19T23:51:48.027Z,16.70
2023-04-19T23:56:49.737Z,14.93
